Time;durP1;ratioP1;P1;durP2;ratioP2;P2;SDS_P1;SDS_P2;PMS_P1;PMS_P2;Temp;Humidity;BMP_temperature;BMP_pressure;BME280_temperature;BME280_humidity;BME280_pressure;Samples;Min_cycle;Max_cycle;Signal;HPM_P1;HPM_P2
2022/06/05 00:01:20;193868.00;0.65;335.37;61259.00;0.20;106.65;;;;;21.90;1.00;;;;;;2284626;60;1987;-86
2022/06/05 00:04:00;564223.00;1.88;972.48;94754.00;0.32;164.52;;;;;22.10;1.00;;;;;;2284605;60;1717;-86
2022/06/05 00:06:38;130488800.00;434.96;90028112.00;247887.00;0.83;428.32;;;;;22.40;1.00;;;;;;2284614;60;1458;-87
2022/06/05 00:09:15;1194046.00;3.98;2079.46;202971.00;0.68;351.04;;;;;22.60;1.00;;;;;;2284669;60;1033;-86
2022/06/05 00:11:49;1037274.00;3.46;1798.60;84276.00;0.28;146.42;;;;;22.50;1.00;;;;;;2284597;60;1043;-86
2022/06/05 00:14:16;1294531.00;4.32;2262.10;182849.00;0.61;316.40;;;;;22.60;1.00;;;;;;2284495;60;1158;-85
2022/06/05 00:16:44;961019.00;3.20;1663.55;207357.00;0.69;358.59;;;;;22.50;1.00;;;;;;2284522;60;1436;-87
2022/06/05 00:19:13;669695.00;2.23;1154.72;86191.00;0.29;149.73;;;;;22.40;1.00;;;;;;2284584;60;1057;-86
2022/06/05 00:21:40;344358.00;1.15;594.16;72830.00;0.24;126.65;;;;;22.20;1.00;;;;;;2284417;60;2000;-85
2022/06/05 00:24:07;418055.00;1.39;720.85;79732.00;0.27;138.57;;;;;22.20;1.00;;;;;;2284376;60;1121;-86
2022/06/05 00:26:48;245870.00;0.82;424.85;60536.00;0.20;105.40;;;;;22.20;1.00;;;;;;2284513;60;1319;-87
2022/06/05 00:29:28;1015041.00;3.38;1759.13;202562.00;0.68;350.33;;;;;22.40;1.00;;;;;;2284552;60;1073;-86
2022/06/05 00:32:07;533113.00;1.78;918.86;81986.00;0.27;142.47;;;;;22.60;1.00;;;;;;2284480;60;1066;-86
2022/06/05 00:34:35;1192385.00;3.97;2076.46;241969.00;0.81;418.14;;;;;22.60;1.00;;;;;;2284214;60;1423;-86
2022/06/05 00:37:16;1058498.00;3.53;1836.36;137088.00;0.46;237.55;;;;;22.40;1.00;;;;;;2284489;60;1083;-86
2022/06/05 00:39:50;824588.00;2.75;1424.04;156639.00;0.52;271.25;;;;;22.30;1.00;;;;;;2284498;60;1061;-86
2022/06/05 00:42:20;520411.00;1.73;896.97;40701.00;0.14;71.10;;;;;22.20;1.00;;;;;;2284251;60;2008;-86
2022/06/05 00:44:51;167612.00;0.56;290.15;61462.00;0.20;107.00;;;;;22.10;1.00;;;;;;2284431;60;1390;-85
2022/06/05 00:47:22;209124.00;0.70;361.63;90614.00;0.30;157.37;;;;;22.20;1.00;;;;;;2284490;60;1179;-87
2022/06/05 00:49:55;170627.00;0.57;295.35;64231.00;0.21;111.79;;;;;22.20;1.00;;;;;;2284497;60;1094;-87
2022/06/05 00:52:24;163508.00;0.55;283.08;62962.00;0.21;109.60;;;;;22.30;1.00;;;;;;2284326;60;1003;-85
2022/06/05 00:54:51;383884.00;1.28;662.10;128223.00;0.43;222.26;;;;;22.20;1.00;;;;;;2284259;60;1548;-86
2022/06/05 00:57:19;231085.00;0.77;399.42;66922.00;0.22;116.44;;;;;22.10;1.00;;;;;;2284344;60;1587;-85
2022/06/05 00:59:47;202598.00;0.68;350.40;80561.00;0.27;140.01;;;;;22.40;1.00;;;;;;2284404;60;2150;-85
2022/06/05 01:02:15;169698.00;0.57;293.75;75539.00;0.25;131.33;;;;;22.60;1.00;;;;;;2284396;60;1996;-86
2022/06/05 01:04:45;215040.00;0.72;371.81;73539.00;0.25;127.88;;;;;22.70;1.00;;;;;;2284349;60;1347;-86
2022/06/05 01:07:14;139475.00;0.46;241.67;28102.00;0.09;49.30;;;;;22.80;1.00;;;;;;2284225;60;1117;-86
2022/06/05 01:09:43;0.00;0.00;0.62;0.00;0.00;0.62;;;;;22.50;1.00;;;;;;2284387;60;1067;-86
2022/06/05 01:12:21;0.00;0.00;0.62;0.00;0.00;0.62;;;;;22.40;1.00;;;;;;2284376;60;1106;-85
2022/06/05 01:14:59;251421.00;0.84;434.39;68426.00;0.23;119.04;;;;;22.50;1.00;;;;;;2284374;60;1483;-85
2022/06/05 01:17:35;139184.00;0.46;241.16;24058.00;0.08;42.30;;;;;22.40;1.00;;;;;;2284418;60;1104;-86
2022/06/05 01:20:13;181641.00;0.61;314.32;63856.00;0.21;111.14;;;;;22.50;1.00;;;;;;2284394;60;1081;-86
2022/06/05 01:23:13;153192.00;0.51;265.31;70360.00;0.23;122.38;;;;;22.40;1.00;;;;;;2284340;60;1978;-86
2022/06/05 01:26:09;459018.00;1.53;791.30;193595.00;0.65;334.90;;;;;22.60;1.00;;;;;;2284228;60;1383;-85
2022/06/05 01:28:41;1649862.00;5.50;2928.42;329715.00;1.10;569.00;;;;;22.60;1.00;;;;;;2284009;60;1155;-86
2022/06/05 01:31:18;1562969.00;5.21;2762.18;328765.00;1.10;567.36;;;;;22.60;1.00;;;;;;2284384;60;1183;-86
2022/06/05 01:33:52;930190.00;3.10;1609.21;125829.00;0.42;218.14;;;;;22.70;1.00;;;;;;2284385;60;1122;-86
2022/06/05 01:36:27;1287138.00;4.29;2248.59;250824.00;0.84;433.37;;;;;22.70;1.00;;;;;;2284359;60;1470;-85
2022/06/05 01:39:00;900720.00;3.00;1557.38;109241.00;0.36;189.52;;;;;22.60;1.00;;;;;;2284328;60;1131;-85
2022/06/05 01:41:35;1293218.00;4.31;2259.70;223417.00;0.74;386.22;;;;;22.70;1.00;;;;;;2284354;60;1981;-87
2022/06/05 01:44:09;1327528.00;4.43;2322.57;82940.00;0.28;144.12;;;;;22.60;1.00;;;;;;2284337;60;989;-85
2022/06/05 01:46:39;1276716.00;4.26;2229.56;184194.00;0.61;318.71;;;;;22.40;1.00;;;;;;2284362;60;1363;-87
2022/06/05 01:49:12;850817.00;2.84;1469.90;63936.00;0.21;111.28;;;;;21.80;1.00;;;;;;2284284;60;1131;-88
2022/06/05 01:51:48;1622110.00;5.41;2875.07;281114.00;0.94;485.45;;;;;21.50;1.00;;;;;;2284313;60;2245;-85
2022/06/05 01:54:20;754772.00;2.52;1302.36;119509.00;0.40;207.24;;;;;21.50;1.00;;;;;;2284311;60;1155;-86
2022/06/05 01:56:53;678730.00;2.26;1170.37;164140.00;0.55;284.17;;;;;21.40;1.00;;;;;;2284326;60;1047;-86
2022/06/05 01:59:26;775192.00;2.58;1337.89;127795.00;0.43;221.53;;;;;21.40;1.00;;;;;;2284167;60;1013;-86
2022/06/05 02:01:58;124550864.00;415.17;78278016.00;178955.00;0.60;309.69;;;;;21.30;1.00;;;;;;2284253;60;2000;-85
2022/06/05 02:04:33;943843.00;3.15;1633.26;169253.00;0.56;292.98;;;;;20.90;1.50;;;;;;2284279;60;1447;-88
2022/06/05 02:07:09;1051257.00;3.50;1823.47;121864.00;0.41;211.30;;;;;20.90;2.30;;;;;;2284328;60;1105;-86
2022/06/05 02:09:39;713093.00;2.38;1229.95;96451.00;0.32;167.45;;;;;20.90;2.40;;;;;;2284952;60;1053;-85
2022/06/05 02:12:10;949709.00;3.17;1643.60;50893.00;0.17;88.73;;;;;21.20;1.40;;;;;;2285037;60;1160;-86
2022/06/05 02:14:40;863267.00;2.88;1491.69;33401.00;0.11;58.47;;;;;21.30;1.50;;;;;;2284890;60;1469;-85
2022/06/05 02:17:07;731132.00;2.44;1261.27;64297.00;0.21;111.90;;;;;21.50;1.00;;;;;;2284826;60;1106;-86
2022/06/05 02:19:35;830932.00;2.77;1435.12;149951.00;0.50;259.72;;;;;20.90;2.20;;;;;;2284996;60;1086;-84
2022/06/05 02:22:07;761825.00;2.54;1314.63;61796.00;0.21;107.58;;;;;20.70;4.00;;;;;;2284818;60;1919;-85
2022/06/05 02:24:34;788689.00;2.63;1361.40;75396.00;0.25;131.08;;;;;20.30;4.90;;;;;;2284825;60;1497;-84
2022/06/05 02:27:05;649401.00;2.16;1119.60;45072.00;0.15;78.66;;;;;20.00;7.20;;;;;;2284914;60;1089;-86
2022/06/05 02:29:34;921307.00;3.07;1593.57;128180.00;0.43;222.19;;;;;20.20;6.60;;;;;;2284950;60;1136;-85
2022/06/05 02:32:18;1315397.00;4.38;2300.31;105825.00;0.35;183.63;;;;;20.20;6.30;;;;;;2284897;60;1112;-85
2022/06/05 02:34:54;909942.00;3.03;1573.59;106530.00;0.36;184.84;;;;;20.30;6.40;;;;;;2284910;60;1371;-85
2022/06/05 02:37:34;842732.00;2.81;1455.75;75714.00;0.25;131.63;;;;;20.50;5.60;;;;;;2284863;60;1169;-85
2022/06/05 02:40:12;849069.00;2.83;1466.84;111939.00;0.37;194.18;;;;;20.60;5.40;;;;;;2284815;60;1086;-85
2022/06/05 02:42:46;1135639.00;3.79;1974.28;154896.00;0.52;268.24;;;;;20.60;4.70;;;;;;2284697;60;1989;-85
2022/06/05 02:45:24;1069260.00;3.56;1855.54;118956.00;0.40;206.28;;;;;20.50;5.40;;;;;;2284843;60;1429;-86
2022/06/05 02:47:59;939234.00;3.13;1625.13;125068.00;0.42;216.82;;;;;20.20;6.80;;;;;;2284838;60;1165;-86
2022/06/05 02:50:31;908133.00;3.03;1570.41;110738.00;0.37;192.10;;;;;20.10;6.80;;;;;;2284900;60;1063;-87
2022/06/05 02:53:02;1026898.00;3.42;1780.17;68155.00;0.23;118.57;;;;;20.40;6.40;;;;;;2284785;60;1102;-86
2022/06/05 02:55:30;886060.00;2.95;1531.65;141880.00;0.47;245.81;;;;;20.50;6.20;;;;;;2284525;60;1368;-84
2022/06/05 02:57:57;1099072.00;3.66;1908.76;126783.00;0.42;219.78;;;;;20.40;5.90;;;;;;2284864;60;1138;-86
2022/06/05 03:00:30;830651.00;2.77;1434.63;107793.00;0.36;187.02;;;;;20.50;6.30;;;;;;2284677;60;982;-84
2022/06/05 03:05:42;190994.00;0.64;330.42;0.00;0.00;0.62;;;;;20.50;6.00;;;;;;2284800;60;1418;-86
2022/06/05 03:08:13;1093640.00;3.65;1899.05;49139.00;0.16;85.70;;;;;20.70;4.80;;;;;;2284812;60;1101;-85
2022/06/05 03:10:40;955095.00;3.18;1653.10;91345.00;0.30;158.63;;;;;20.60;5.40;;;;;;2284777;60;1170;-86
2022/06/05 03:13:07;963776.00;3.21;1668.42;94100.00;0.31;163.39;;;;;20.60;5.40;;;;;;2284791;60;1076;-86
2022/06/05 03:15:36;1075529.00;3.59;1866.72;177818.00;0.59;307.73;;;;;20.70;5.20;;;;;;2284714;60;1381;-86
2022/06/05 03:18:04;1252584.00;4.18;2185.59;36399.00;0.12;63.66;;;;;20.90;4.10;;;;;;2284678;60;1158;-86
2022/06/05 03:20:31;1234366.00;4.11;2152.48;124895.00;0.42;216.53;;;;;20.90;3.90;;;;;;2284719;60;1053;-85
2022/06/05 03:22:58;797601.00;2.66;1376.94;118549.00;0.40;205.58;;;;;20.90;3.90;;;;;;2284643;60;1989;-85
2022/06/05 03:25:26;875562.00;2.92;1513.24;101000.00;0.34;175.30;;;;;20.90;4.10;;;;;;2284723;60;1295;-85
2022/06/05 03:27:53;1181024.00;3.94;2055.95;211086.00;0.70;365.00;;;;;20.90;3.40;;;;;;2284736;60;1084;-86
2022/06/05 03:30:21;739534.00;2.47;1275.87;53847.00;0.18;93.84;;;;;20.60;4.90;;;;;;2284679;60;1042;-86
2022/06/05 03:32:49;974828.00;3.25;1687.94;224285.00;0.75;387.72;;;;;20.60;4.90;;;;;;2284471;60;1121;-85
2022/06/05 03:35:16;1465955.00;4.89;2579.22;164252.00;0.55;284.36;;;;;20.60;5.20;;;;;;2284707;60;1257;-85
2022/06/05 03:37:43;1073424.00;3.58;1862.96;130639.00;0.44;226.43;;;;;20.60;4.60;;;;;;2284712;60;1096;-86
2022/06/05 03:40:14;1035553.00;3.45;1795.54;74882.00;0.25;130.20;;;;;20.80;4.70;;;;;;2284644;60;2021;-84
2022/06/05 03:42:41;929173.00;3.10;1607.42;165269.00;0.55;286.12;;;;;21.10;3.60;;;;;;2284605;60;1915;-84
2022/06/05 03:45:12;747068.00;2.49;1288.96;67862.00;0.23;118.07;;;;;21.20;2.70;;;;;;2284638;60;1264;-85
2022/06/05 03:47:39;746922.00;2.49;1288.71;1691.00;0.01;3.55;;;;;21.70;1.00;;;;;;2284638;60;1328;-85
2022/06/05 03:50:09;500318.00;1.67;862.37;30888.00;0.10;54.12;;;;;21.80;1.00;;;;;;2284411;60;1129;-83
2022/06/05 03:52:36;907873.00;3.03;1569.95;116071.00;0.39;201.30;;;;;22.20;1.00;;;;;;2284569;60;1124;-86
2022/06/05 03:55:03;494907.00;1.65;853.06;6902.00;0.02;12.58;;;;;22.30;1.00;;;;;;2284652;60;1341;-87
2022/06/05 03:57:30;704500.00;2.35;1215.04;83417.00;0.28;144.94;;;;;22.50;1.00;;;;;;2284707;60;1048;-86
2022/06/05 03:59:57;597959.00;1.99;1030.70;26798.00;0.09;47.04;;;;;22.80;1.00;;;;;;2284608;60;1145;-85
2022/06/05 04:02:25;719086.00;2.40;1240.35;44673.00;0.15;77.97;;;;;22.90;1.00;;;;;;2284569;60;1924;-85
2022/06/05 04:04:52;903693.00;3.01;1562.61;98329.00;0.33;170.69;;;;;23.00;1.00;;;;;;2284388;60;1400;-86
2022/06/05 04:07:20;638607.00;2.13;1100.93;63485.00;0.21;110.50;;;;;23.10;1.00;;;;;;2284553;60;1142;-86
2022/06/05 04:09:47;847699.00;2.83;1464.44;215931.00;0.72;373.34;;;;;23.10;1.00;;;;;;2284516;60;1049;-86
2022/06/05 04:12:14;1020933.00;3.40;1769.58;192313.00;0.64;332.69;;;;;23.20;1.00;;;;;;2284627;60;2234;-85
2022/06/05 04:14:41;805683.00;2.69;1391.04;157575.00;0.53;272.86;;;;;22.90;1.00;;;;;;2284563;60;1353;-86
2022/06/05 04:17:08;944918.00;3.15;1635.15;156729.00;0.52;271.40;;;;;22.80;1.00;;;;;;2284534;60;1609;-86
2022/06/05 04:19:35;961032.00;3.20;1663.57;264938.00;0.88;457.64;;;;;22.70;1.00;;;;;;2284620;60;1071;-87
2022/06/05 04:22:02;987474.00;3.29;1710.30;147726.00;0.49;255.89;;;;;22.50;1.00;;;;;;2284421;60;1917;-86
2022/06/05 04:24:30;640470.00;2.13;1104.15;88843.00;0.30;154.31;;;;;22.10;1.00;;;;;;2284381;60;1396;-86
2022/06/05 04:26:58;852842.00;2.84;1473.44;126220.00;0.42;218.81;;;;;21.40;1.00;;;;;;2284539;61;1220;-87
2022/06/05 04:29:25;817997.00;2.73;1412.53;85248.00;0.28;148.10;;;;;20.90;1.70;;;;;;2284621;60;1132;-86
2022/06/05 04:31:53;751987.00;2.51;1297.51;92628.00;0.31;160.85;;;;;20.70;3.20;;;;;;2284376;60;1047;-85
2022/06/05 04:34:22;631141.00;2.10;1088.02;81342.00;0.27;141.36;;;;;20.80;2.80;;;;;;2284555;60;1015;-83
2022/06/05 04:36:50;1087920.00;3.63;1888.83;166291.00;0.55;287.88;;;;;20.80;3.30;;;;;;2284444;60;979;-85
2022/06/05 04:39:17;830187.00;2.77;1433.82;159289.00;0.53;275.81;;;;;20.90;2.90;;;;;;2284536;60;1151;-87
2022/06/05 04:41:47;777374.00;2.59;1341.69;131438.00;0.44;227.81;;;;;21.20;1.40;;;;;;2284546;60;1101;-84
2022/06/05 04:44:16;1128303.00;3.76;1961.11;178997.00;0.60;309.76;;;;;21.60;1.00;;;;;;2284432;60;1959;-86
2022/06/05 04:46:44;820473.00;2.73;1416.85;88040.00;0.29;152.92;;;;;22.10;1.00;;;;;;2284487;60;1413;-85
2022/06/05 04:49:11;612220.00;2.04;1055.32;82310.00;0.27;143.03;;;;;22.50;1.00;;;;;;2284508;60;1023;-86
2022/06/05 04:51:38;788468.00;2.63;1361.02;149737.00;0.50;259.35;;;;;22.90;1.00;;;;;;2284586;60;1108;-87
2022/06/05 04:54:07;799745.00;2.67;1380.68;107505.00;0.36;186.52;;;;;22.70;1.00;;;;;;2284363;60;1001;-86
2022/06/05 04:56:34;826979.00;2.76;1428.22;86678.00;0.29;150.57;;;;;22.30;1.00;;;;;;2284469;60;1411;-86
2022/06/05 04:59:03;911473.00;3.04;1576.28;192977.00;0.64;333.83;;;;;22.40;1.00;;;;;;2284501;60;1118;-85
2022/06/05 05:01:32;851420.00;2.84;1470.95;79374.00;0.26;137.96;;;;;22.60;1.00;;;;;;2284410;60;1083;-86
2022/06/05 05:04:02;621719.00;2.07;1071.74;18094.00;0.06;31.97;;;;;22.50;1.00;;;;;;2284427;60;1996;-86
2022/06/05 05:06:31;668524.00;2.23;1152.70;29552.00;0.10;51.81;;;;;22.40;1.00;;;;;;2284307;60;1903;-85
2022/06/05 05:08:58;593482.00;1.98;1022.97;90560.00;0.30;157.27;;;;;22.10;1.00;;;;;;2284429;60;1126;-85
2022/06/05 05:11:26;760438.00;2.53;1312.21;58196.00;0.19;101.36;;;;;21.90;1.00;;;;;;2284436;60;1992;-87
2022/06/05 05:13:54;1250899.00;4.17;2182.52;222675.00;0.74;384.95;;;;;21.40;1.00;;;;;;2284359;60;1113;-84
2022/06/05 05:16:23;997766.00;3.33;1728.52;146740.00;0.49;254.19;;;;;21.30;2.40;;;;;;2284357;60;1292;-86
2022/06/05 05:18:50;1108113.00;3.69;1924.94;119118.00;0.40;206.56;;;;;21.30;3.30;;;;;;2284399;60;1141;-85
2022/06/05 05:21:19;1040658.00;3.47;1804.62;137199.00;0.46;237.74;;;;;21.30;4.30;;;;;;2284425;60;1182;-85
2022/06/05 05:23:48;739732.00;2.47;1276.21;105177.00;0.35;182.51;;;;;21.40;2.70;;;;;;2284228;60;1990;-87
2022/06/05 05:26:17;884864.00;2.95;1529.55;95882.00;0.32;166.46;;;;;21.50;3.90;;;;;;2284210;60;1435;-85
2022/06/05 05:28:45;440435.00;1.47;759.33;0.00;0.00;0.62;;;;;21.60;4.10;;;;;;2284271;61;1121;-85
2022/06/05 05:31:18;63785.00;0.21;111.02;0.00;0.00;0.62;;;;;21.40;6.00;;;;;;2284166;61;1082;-84
2022/06/05 05:33:49;165715.00;0.55;286.89;0.00;0.00;0.62;;;;;21.10;5.80;;;;;;2284068;60;1167;-86
2022/06/05 05:36:17;233784.00;0.78;404.06;0.00;0.00;0.62;;;;;21.40;6.00;;;;;;2284282;60;1434;-87
2022/06/05 05:42:04;330786.00;1.10;570.84;0.00;0.00;0.62;;;;;21.40;6.90;;;;;;2284299;60;1105;-86
2022/06/05 05:44:18;150311.00;0.50;260.34;0.00;0.00;0.62;;;;;20.80;8.50;;;;;;2285031;60;1924;-85
2022/06/05 05:46:45;282718.00;0.94;488.21;0.00;0.00;0.62;;;;;20.00;14.20;;;;;;2284910;60;1319;-86
2022/06/05 05:49:15;217659.00;0.73;376.32;0.00;0.00;0.62;;;;;20.00;14.80;;;;;;2285060;60;1614;-87
2022/06/05 05:51:43;409539.00;1.37;706.20;33686.00;0.11;58.96;;;;;20.20;15.10;;;;;;2285100;60;1111;-86
2022/06/05 05:54:10;169629.00;0.57;293.63;0.00;0.00;0.62;;;;;20.60;12.50;;;;;;2284998;60;1128;-86
2022/06/05 05:56:38;234197.00;0.78;404.77;0.00;0.00;0.62;;;;;20.60;13.20;;;;;;2285098;60;1291;-87
2022/06/05 05:59:05;565377.00;1.88;974.47;56185.00;0.19;97.88;;;;;20.50;12.00;;;;;;2284991;60;1130;-85
2022/06/05 06:01:33;961301.00;3.20;1664.05;15303.00;0.05;27.14;;;;;20.20;13.70;;;;;;2284685;60;1181;-87
2022/06/05 06:04:00;640446.00;2.13;1104.11;6250.00;0.02;11.45;;;;;19.70;17.10;;;;;;2284996;60;2002;-85
2022/06/05 06:06:31;135594.00;0.45;234.97;0.00;0.00;0.62;;;;;19.90;17.90;;;;;;2284868;60;1391;-85
2022/06/05 06:08:58;244845.00;0.82;423.08;0.00;0.00;0.62;;;;;20.40;14.80;;;;;;2285078;60;1126;-84
2022/06/05 06:11:25;192079.00;0.64;332.29;0.00;0.00;0.62;;;;;20.50;12.70;;;;;;2284883;60;1131;-85
2022/06/05 06:13:52;957436.00;3.19;1657.23;0.00;0.00;0.62;;;;;20.40;12.70;;;;;;2284983;60;1117;-85
2022/06/05 06:16:19;1556627.00;5.19;2750.13;0.00;0.00;0.62;;;;;19.70;17.10;;;;;;2284874;60;1403;-86
2022/06/05 06:18:46;955628.00;3.19;1654.04;0.00;0.00;0.62;;;;;19.20;21.50;;;;;;2284895;60;1065;-85
2022/06/05 06:21:13;1406647.00;4.69;2468.66;32287.00;0.11;56.54;;;;;19.00;22.20;;;;;;2284752;60;1230;-84
2022/06/05 06:23:41;2701103.00;9.00;5177.36;223591.00;0.75;386.52;;;;;18.70;24.40;;;;;;2284936;60;1911;-85
2022/06/05 06:26:09;2058627.00;6.86;3745.41;18788.00;0.06;33.17;;;;;18.50;22.90;;;;;;2284872;60;1377;-86
2022/06/05 06:28:36;785753.00;2.62;1356.29;21840.00;0.07;38.46;;;;;18.60;23.20;;;;;;2284919;60;1144;-86
2022/06/05 06:31:07;927423.00;3.09;1604.34;71040.00;0.24;123.56;;;;;18.80;22.20;;;;;;2284729;60;1115;-86
2022/06/05 06:33:34;193618.00;0.65;334.94;0.00;0.00;0.62;;;;;18.90;22.00;;;;;;2284591;60;1006;-84
2022/06/05 06:36:02;669439.00;2.23;1154.28;8236.00;0.03;14.89;;;;;18.90;21.30;;;;;;2284892;60;1380;-85
2022/06/05 06:38:29;27410.00;0.09;48.10;0.00;0.00;0.62;;;;;18.90;21.60;;;;;;2284770;60;1029;-84
2022/06/05 06:41:02;163423.00;0.54;282.94;0.00;0.00;0.62;;;;;19.20;18.10;;;;;;2284871;60;986;-85
2022/06/05 06:43:29;405654.00;1.35;699.53;11030.00;0.04;19.73;;;;;19.20;19.20;;;;;;2284723;60;2004;-84
2022/06/05 06:45:56;564083.00;1.88;972.24;0.00;0.00;0.62;;;;;19.20;19.00;;;;;;2284884;60;1260;-84
2022/06/05 06:48:23;816138.00;2.72;1409.28;28181.00;0.09;49.43;;;;;19.10;18.10;;;;;;2284909;60;1157;-85
2022/06/05 06:50:50;946307.00;3.15;1637.60;0.00;0.00;0.62;;;;;19.10;17.00;;;;;;2284760;60;1154;-84
2022/06/05 06:53:17;1523601.00;5.08;2687.61;63836.00;0.21;111.11;;;;;18.80;17.70;;;;;;2284713;60;1175;-85
2022/06/05 06:55:44;1424072.00;4.75;2501.04;87595.00;0.29;152.15;;;;;18.60;18.30;;;;;;2284798;60;1313;-85
2022/06/05 06:58:12;2553524.00;8.51;4829.76;117485.00;0.39;203.74;;;;;18.50;19.80;;;;;;2284735;60;1131;-86
2022/06/05 07:00:39;119418840.00;398.06;68986976.00;76322.00;0.25;132.68;;;;;18.20;22.00;;;;;;2284758;60;1150;-85
2022/06/05 07:03:06;1249824.00;4.17;2180.57;34008.00;0.11;59.52;;;;;18.40;20.90;;;;;;2284624;60;1918;-86
2022/06/05 07:05:34;1140437.00;3.80;1982.89;25824.00;0.09;45.35;;;;;18.50;18.50;;;;;;2284772;60;1375;-86
2022/06/05 07:08:02;831638.00;2.77;1436.36;43092.00;0.14;75.24;;;;;19.10;14.00;;;;;;2284782;60;1027;-83
2022/06/05 07:10:29;1564978.00;5.22;2765.99;56871.00;0.19;99.07;;;;;19.60;12.70;;;;;;2284633;60;1333;-82
2022/06/05 07:12:56;1422105.00;4.74;2497.38;24644.00;0.08;43.31;;;;;19.40;13.90;;;;;;2284841;60;1122;-82
2022/06/05 07:15:26;1300093.00;4.33;2272.28;183264.00;0.61;317.11;;;;;19.40;14.90;;;;;;2284707;60;1282;-82
2022/06/05 07:17:53;1039082.00;3.46;1801.82;153217.00;0.51;265.35;;;;;19.80;12.30;;;;;;2284715;60;1525;-83
2022/06/05 07:20:21;1154072.00;3.85;2007.40;202407.00;0.67;350.07;;;;;20.50;10.10;;;;;;2284796;60;1025;-83
2022/06/05 07:22:47;1102438.00;3.67;1914.78;196612.00;0.66;340.09;;;;;20.80;6.70;;;;;;2284773;60;1086;-83
2022/06/05 07:25:14;1145085.00;3.82;1991.24;135546.00;0.45;234.89;;;;;21.20;6.00;;;;;;2284711;60;2038;-83
2022/06/05 07:27:41;451703.00;1.51;778.71;80827.00;0.27;140.47;;;;;21.40;4.50;;;;;;2284757;60;1161;-83
2022/06/05 07:30:09;186798.00;0.62;323.20;75380.00;0.25;131.06;;;;;21.60;4.90;;;;;;2284730;60;1006;-84
2022/06/05 07:32:37;274315.00;0.91;473.76;78440.00;0.26;136.34;;;;;21.80;4.40;;;;;;2284695;60;1042;-84
2022/06/05 07:35:05;0.00;0.00;0.62;0.00;0.00;0.62;;;;;21.70;4.10;;;;;;2284694;60;1277;-85
2022/06/05 07:37:33;29803.00;0.10;52.24;0.00;0.00;0.62;;;;;21.80;3.50;;;;;;2284719;60;1076;-85
2022/06/05 07:40:00;41374.00;0.14;72.27;0.00;0.00;0.62;;;;;21.80;3.60;;;;;;2284681;60;1125;-84
2022/06/05 07:42:27;166614.00;0.56;288.43;0.00;0.00;0.62;;;;;21.80;5.10;;;;;;2284716;60;1074;-84
2022/06/05 07:44:54;62241.00;0.21;108.35;0.00;0.00;0.62;;;;;22.00;3.10;;;;;;2284637;60;1989;-85
2022/06/05 07:47:21;4560.00;0.02;8.52;0.00;0.00;0.62;;;;;22.10;3.70;;;;;;2284660;60;1114;-84
2022/06/05 07:49:49;25535.00;0.09;44.85;0.00;0.00;0.62;;;;;22.00;3.10;;;;;;2284565;60;960;-85
2022/06/05 07:55:00;72834.00;0.24;126.66;0.00;0.00;0.62;;;;;22.00;5.00;;;;;;2284638;60;1360;-85
2022/06/05 07:57:27;0.00;0.00;0.62;0.00;0.00;0.62;;;;;22.20;4.70;;;;;;2284572;60;1008;-85
2022/06/05 07:59:54;92056.00;0.31;159.86;0.00;0.00;0.62;;;;;22.20;4.90;;;;;;2284678;60;1062;-85
2022/06/05 08:02:23;184823.00;0.62;319.79;0.00;0.00;0.62;;;;;22.40;8.30;;;;;;2284698;60;1113;-84
2022/06/05 08:04:52;572663.00;1.91;987.04;34236.00;0.11;59.91;;;;;22.70;5.70;;;;;;2284326;60;1919;-85
2022/06/05 08:07:22;1179833.00;3.93;2053.80;64909.00;0.22;112.96;;;;;23.00;4.60;;;;;;2284612;60;1114;-85
2022/06/05 08:09:52;858763.00;2.86;1483.81;60104.00;0.20;104.66;;;;;23.10;2.80;;;;;;2284722;60;962;-85
2022/06/05 08:12:20;1133974.00;3.78;1971.29;168714.00;0.56;292.05;;;;;23.30;3.20;;;;;;2284630;60;1041;-85
2022/06/05 08:14:49;1071186.00;3.57;1858.97;46305.00;0.15;80.80;;;;;23.50;3.40;;;;;;2284502;60;1391;-85
2022/06/05 08:17:18;1472390.00;4.91;2591.27;174311.00;0.58;301.69;;;;;23.80;3.20;;;;;;2284664;60;1044;-84
2022/06/05 08:19:46;1363712.00;4.55;2389.19;105125.00;0.35;182.42;;;;;23.70;2.30;;;;;;2284617;60;1066;-84
2022/06/05 08:22:17;562662.00;1.88;969.79;29602.00;0.10;51.89;;;;;24.00;4.90;;;;;;2284624;60;1144;-84
2022/06/05 08:24:44;877112.00;2.92;1515.96;96225.00;0.32;167.06;;;;;24.30;2.90;;;;;;2284555;60;1989;-83
2022/06/05 08:27:14;1220233.00;4.07;2126.84;42321.00;0.14;73.90;;;;;24.70;3.20;;;;;;2284465;60;963;-85
2022/06/05 08:29:42;416068.00;1.39;717.43;31280.00;0.10;54.80;;;;;25.10;1.00;;;;;;2284612;60;1085;-85
2022/06/05 08:32:10;495062.00;1.65;853.32;4046.00;0.01;7.63;;;;;24.90;1.00;;;;;;2284472;60;1149;-84
2022/06/05 08:34:37;797278.00;2.66;1376.38;24506.00;0.08;43.07;;;;;25.20;1.00;;;;;;2284560;60;1308;-84
2022/06/05 08:43:09;255789.00;0.85;441.91;55957.00;0.19;97.49;;;;;27.80;1.00;;;;;;2275247;60;1507;-86
2022/06/05 08:45:44;182431.00;0.61;315.68;18542.00;0.06;32.75;;;;;28.80;1.00;;;;;;2284428;60;1931;-85
2022/06/05 08:48:17;92735.00;0.31;161.03;0.00;0.00;0.62;;;;;29.30;1.00;;;;;;2284510;60;1127;-86
2022/06/05 08:50:47;338874.00;1.13;584.74;12722.00;0.04;22.66;;;;;29.70;1.00;;;;;;2284517;60;1023;-86
2022/06/05 08:53:22;383149.00;1.28;660.84;29776.00;0.10;52.20;;;;;30.10;1.00;;;;;;2284357;60;1114;-87
2022/06/05 08:55:54;289037.00;0.96;499.07;81493.00;0.27;141.62;;;;;30.40;1.00;;;;;;2284304;60;1414;-86
2022/06/05 08:58:29;167775.00;0.56;290.43;63034.00;0.21;109.72;;;;;29.80;1.00;;;;;;2284354;60;1105;-85
2022/06/05 09:01:02;258921.00;0.86;447.29;88437.00;0.29;153.61;;;;;29.70;1.00;;;;;;2284273;60;1126;-87
2022/06/05 09:03:35;502245.00;1.67;865.69;89920.00;0.30;156.17;;;;;30.00;1.00;;;;;;2283981;61;1986;-85
2022/06/05 09:06:05;218439.00;0.73;377.66;73428.00;0.24;127.68;;;;;29.90;1.00;;;;;;2284274;60;1518;-86
2022/06/05 09:08:39;165429.00;0.55;286.39;64335.00;0.21;111.97;;;;;30.00;1.00;;;;;;2284423;60;1239;-86
2022/06/05 09:11:15;178061.00;0.59;308.15;66132.00;0.22;115.08;;;;;30.10;1.00;;;;;;2284343;60;1110;-86
2022/06/05 09:13:49;170145.00;0.57;294.52;68790.00;0.23;119.67;;;;;30.00;1.00;;;;;;2284389;60;1087;-86
2022/06/05 09:16:24;187103.00;0.62;323.72;66337.00;0.22;115.43;;;;;29.40;1.00;;;;;;2284260;60;1305;-87
2022/06/05 09:18:51;168844.00;0.56;292.28;67315.00;0.22;117.12;;;;;28.70;1.00;;;;;;2284439;60;1075;-85
2022/06/05 09:21:25;215301.00;0.72;372.26;71714.00;0.24;124.72;;;;;28.20;1.00;;;;;;2284421;60;1046;-87
2022/06/05 09:24:05;207195.00;0.69;358.31;64085.00;0.21;111.54;;;;;28.20;1.00;;;;;;2284342;60;1984;-88
2022/06/05 09:26:42;202329.00;0.67;349.93;64672.00;0.22;112.55;;;;;28.30;1.00;;;;;;2284380;60;1458;-87
2022/06/05 09:29:22;167258.00;0.56;289.54;58763.00;0.20;102.34;;;;;28.20;1.00;;;;;;2284459;60;1148;-85
2022/06/05 09:32:14;166478.00;0.55;288.20;69059.00;0.23;120.13;;;;;28.00;1.00;;;;;;2284412;60;1050;-88
2022/06/05 09:34:49;364024.00;1.21;627.97;48785.00;0.16;85.08;;;;;27.90;1.00;;;;;;2283875;60;1399;-87
2022/06/05 09:37:24;320655.00;1.07;553.42;75503.00;0.25;131.27;;;;;27.80;1.00;;;;;;2284249;60;1638;-89
2022/06/05 09:39:57;629956.00;2.10;1085.97;61594.00;0.21;107.23;;;;;27.90;1.00;;;;;;2284381;60;1042;-88
2022/06/05 09:42:49;493486.00;1.64;850.61;104980.00;0.35;182.17;;;;;27.70;1.00;;;;;;2284369;60;1124;-85
2022/06/05 09:45:28;142571264.00;475.24;117454904.00;59528.00;0.20;103.66;;;;;27.10;1.00;;;;;;2284351;60;1986;-86
2022/06/05 09:48:12;266107.00;0.89;459.65;69454.00;0.23;120.82;;;;;27.40;1.00;;;;;;2284433;60;1054;-86
2022/06/05 09:50:39;199500.00;0.67;345.06;74518.00;0.25;129.57;;;;;27.70;1.00;;;;;;2284399;60;1161;-86